Time;durP1;ratioP1;P1;durP2;ratioP2;P2;SDS_P1;SDS_P2;PMS_P1;PMS_P2;Temp;Humidity;BMP_temperature;BMP_pressure;BME280_temperature;BME280_humidity;BME280_pressure;Samples;Min_cycle;Max_cycle;Signal;HPM_P1;HPM_P2
2021/12/04 00:00:36;;;;;;;35.97;19.90;;;;;;;3.02;100.00;99969.09;5024266;28;20024;-65
2021/12/04 00:03:01;;;;;;;34.35;18.85;;;;;;;3.05;100.00;99972.41;5022386;28;20036;-65
2021/12/04 00:05:26;;;;;;;38.95;21.05;;;;;;;3.25;100.00;99957.06;5022661;28;20021;-65
2021/12/04 00:07:52;;;;;;;35.03;19.02;;;;;;;2.99;100.00;99939.16;5022866;28;20037;-70
2021/12/04 00:10:18;;;;;;;41.20;25.92;;;;;;;3.41;100.00;99949.00;5024404;28;20070;-70
2021/12/04 00:12:44;;;;;;;38.60;20.40;;;;;;;3.26;100.00;99945.50;5021630;28;20037;-70
2021/12/04 00:15:10;;;;;;;29.08;14.02;;;;;;;2.94;100.00;99951.84;5025136;28;20030;-71
2021/12/04 00:17:36;;;;;;;28.88;12.98;;;;;;;2.94;100.00;99954.47;5022729;28;20101;-65
2021/12/04 00:20:03;;;;;;;35.25;16.88;;;;;;;2.93;100.00;99939.53;5022425;28;20828;-70
2021/12/04 00:22:28;;;;;;;24.05;11.50;;;;;;;3.14;100.00;99929.41;5006396;28;20385;-66
2021/12/04 00:24:53;;;;;;;26.20;12.70;;;;;;;3.06;100.00;99936.09;5024689;28;20029;-66
2021/12/04 00:27:19;;;;;;;32.10;15.02;;;;;;;2.91;100.00;99922.84;5001251;28;20116;-71
2021/12/04 00:29:44;;;;;;;33.65;13.95;;;;;;;2.93;100.00;99938.66;5024473;28;20025;-66
2021/12/04 00:32:15;;;;;;;32.50;14.13;;;;;;;2.79;100.00;99928.88;5020683;28;20057;-65
2021/12/04 00:34:44;;;;;;;33.58;15.55;;;;;;;3.07;100.00;99928.06;5028751;28;20029;-66
2021/12/04 00:37:46;;;;;;;31.80;12.50;;;;;;;2.95;100.00;99936.75;5026655;28;20037;-65
2021/12/04 00:51:07;;;;;;;42.78;18.30;;;;;;;2.99;100.00;99928.53;5026039;28;20067;-65
2021/12/04 00:53:34;;;;;;;39.55;17.17;;;;;;;3.09;100.00;99930.63;5023186;28;20026;-66
2021/12/04 00:55:59;;;;;;;37.00;18.83;;;;;;;3.02;100.00;99924.00;5029445;28;20451;-65
2021/12/04 00:58:25;;;;;;;38.38;18.75;;;;;;;3.11;100.00;99920.75;5007982;28;20120;-65
2021/12/04 01:00:50;;;;;;;36.35;15.13;;;;;;;3.14;100.00;99912.63;5024243;28;20487;-65
2021/12/04 01:03:15;;;;;;;29.50;12.07;;;;;;;2.94;100.00;99916.50;5023430;28;20040;-65
2021/12/04 01:05:41;;;;;;;22.65;10.93;;;;;;;2.89;100.00;99908.00;5030180;28;20031;-66
2021/12/04 01:08:06;;;;;;;31.75;14.02;;;;;;;2.93;100.00;99920.97;5023622;28;20035;-65
2021/12/04 01:10:32;;;;;;;30.45;13.63;;;;;;;2.96;100.00;99915.47;5013191;28;20565;-65
2021/12/04 01:13:00;;;;;;;44.22;19.15;;;;;;;3.10;100.00;99914.63;5024220;28;20060;-65
2021/12/04 01:15:27;;;;;;;37.00;15.75;;;;;;;2.96;100.00;99907.50;5028882;28;20387;-65
2021/12/04 01:17:52;;;;;;;27.13;11.18;;;;;;;2.98;100.00;99925.97;5010520;28;20391;-65
2021/12/04 01:20:18;;;;;;;28.88;12.13;;;;;;;3.03;100.00;99915.94;5019091;28;20033;-66
2021/12/04 01:22:43;;;;;;;30.90;12.50;;;;;;;2.88;100.00;99924.84;5024948;28;20029;-66
2021/12/04 01:25:09;;;;;;;28.70;12.77;;;;;;;3.06;100.00;99922.84;5021058;28;20472;-66
2021/12/04 01:27:37;;;;;;;34.90;14.98;;;;;;;2.95;100.00;99908.47;5023287;28;20036;-65
2021/12/04 01:30:06;;;;;;;23.63;10.63;;;;;;;2.90;100.00;99938.84;5029480;28;20026;-66
2021/12/04 01:32:31;;;;;;;32.63;12.70;;;;;;;3.06;100.00;99925.50;5007599;28;20030;-71
2021/12/04 01:34:57;;;;;;;42.42;17.50;;;;;;;3.18;100.00;99922.09;5025942;28;20080;-65
2021/12/04 01:37:22;;;;;;;30.00;12.40;;;;;;;3.01;100.00;99917.81;5008439;28;20041;-66
2021/12/04 01:39:47;;;;;;;20.27;9.02;;;;;;;2.82;100.00;99892.44;5030129;28;20451;-66
2021/12/04 01:42:18;;;;;;;29.77;13.73;;;;;;;3.08;100.00;99908.56;5007800;28;20065;-66
2021/12/04 01:44:43;;;;;;;31.83;13.57;;;;;;;3.17;100.00;99908.94;5025999;28;20474;-65
2021/12/04 01:47:16;;;;;;;26.75;10.65;;;;;;;2.99;100.00;99923.25;5024810;28;20044;-66
2021/12/04 01:49:42;;;;;;;25.20;9.98;;;;;;;2.93;100.00;99913.00;5025783;28;20044;-65
2021/12/04 01:52:08;;;;;;;23.42;9.38;;;;;;;3.07;100.00;99911.28;5022911;28;20029;-66
2021/12/04 01:54:35;;;;;;;34.90;13.95;;;;;;;3.15;100.00;99906.38;5025871;28;20033;-65
2021/12/04 01:57:00;;;;;;;21.67;9.18;;;;;;;3.10;100.00;99906.66;5022840;28;20029;-70
2021/12/04 01:59:27;;;;;;;30.88;13.10;;;;;;;3.07;100.00;99892.72;5013750;28;20052;-70
2021/12/04 02:01:53;;;;;;;28.55;11.15;;;;;;;3.17;100.00;99906.28;5022472;28;20648;-70
2021/12/04 02:04:18;;;;;;;19.40;9.02;;;;;;;3.11;100.00;99899.56;5025540;28;20021;-65
2021/12/04 02:06:43;;;;;;;39.22;16.35;;;;;;;3.30;100.00;99909.88;5026624;28;20434;-65
2021/12/04 02:09:09;;;;;;;26.95;10.40;;;;;;;3.38;100.00;99909.38;5025741;28;20467;-65
2021/12/04 02:11:34;;;;;;;21.05;8.55;;;;;;;3.07;100.00;99898.91;5024927;28;20577;-65
2021/12/04 02:14:00;;;;;;;24.88;9.05;;;;;;;3.22;100.00;99902.41;5023763;28;20029;-65
2021/12/04 02:16:25;;;;;;;23.25;8.93;;;;;;;3.23;100.00;99893.50;5024408;28;20107;-65
2021/12/04 02:18:51;;;;;;;31.23;12.15;;;;;;;3.25;100.00;99885.44;5025539;28;20021;-65
2021/12/04 02:21:16;;;;;;;30.92;9.57;;;;;;;3.02;100.00;99861.19;5024141;28;20079;-66
2021/12/04 02:23:41;;;;;;;30.40;11.60;;;;;;;3.34;100.00;99866.28;5013706;28;20037;-65
2021/12/04 02:26:07;;;;;;;20.52;7.82;;;;;;;3.07;100.00;99852.94;5023738;28;20040;-65
2021/12/04 02:28:32;;;;;;;27.30;10.27;;;;;;;3.15;100.00;99861.28;5026385;28;20032;-66
2021/12/04 02:30:58;;;;;;;25.80;10.05;;;;;;;3.12;100.00;99850.84;5007463;28;20056;-66
2021/12/04 02:33:24;;;;;;;26.17;11.18;;;;;;;3.26;100.00;99842.03;4993208;28;20144;-66
2021/12/04 02:35:52;;;;;;;35.47;14.02;;;;;;;3.25;100.00;99845.63;5023954;28;20621;-66
2021/12/04 02:38:22;;;;;;;26.85;11.00;;;;;;;3.29;100.00;99839.19;5026747;28;20033;-65
2021/12/04 02:40:48;;;;;;;29.05;10.38;;;;;;;3.12;100.00;99824.34;5023679;28;20060;-66
2021/12/04 02:43:14;;;;;;;25.17;9.88;;;;;;;3.13;100.00;99841.94;5012244;28;20057;-65
2021/12/04 02:45:39;;;;;;;21.30;8.90;;;;;;;3.18;100.00;99823.94;5020306;28;20025;-65
2021/12/04 02:48:05;;;;;;;17.77;7.55;;;;;;;3.26;100.00;99844.69;5024079;28;20029;-65
2021/12/04 02:50:30;;;;;;;32.90;12.43;;;;;;;3.18;100.00;99836.38;5024426;28;20053;-66
2021/12/04 02:52:55;;;;;;;20.73;8.35;;;;;;;3.08;100.00;99814.88;5021741;28;20040;-69
2021/12/04 02:55:21;;;;;;;27.02;9.70;;;;;;;3.23;100.00;99835.13;5021821;28;20056;-69
2021/12/04 02:57:46;;;;;;;20.60;8.43;;;;;;;3.14;100.00;99825.97;5026709;28;20052;-69
2021/12/04 03:00:19;;;;;;;19.25;7.63;;;;;;;3.21;100.00;99823.75;4992821;28;20032;-69
2021/12/04 03:02:45;;;;;;;23.45;10.38;;;;;;;3.33;100.00;99827.44;5020066;28;20030;-66
2021/12/04 03:05:11;;;;;;;31.85;12.85;;;;;;;3.47;100.00;99818.59;5009537;28;20057;-66
2021/12/04 03:07:37;;;;;;;21.33;9.45;;;;;;;3.34;100.00;99823.84;5008275;28;20116;-65
2021/12/04 03:10:06;;;;;;;21.73;9.40;;;;;;;3.32;100.00;99824.84;5023029;28;20124;-65
2021/12/04 03:12:31;;;;;;;21.35;8.20;;;;;;;3.34;100.00;99826.47;5010749;28;20091;-66
2021/12/04 03:14:56;;;;;;;22.13;9.23;;;;;;;3.32;100.00;99822.22;5025504;28;20030;-66
2021/12/04 03:17:23;;;;;;;12.02;7.25;;;;;;;3.28;100.00;99817.13;5024632;28;20101;-66
2021/12/04 03:19:51;;;;;;;25.73;9.60;;;;;;;3.42;100.00;99812.72;5021194;28;20461;-65
2021/12/04 03:22:18;;;;;;;27.10;9.23;;;;;;;3.23;100.00;99800.66;5022278;28;20553;-66
2021/12/04 03:24:43;;;;;;;24.10;10.23;;;;;;;3.26;100.00;99805.75;5022830;28;20467;-65
2021/12/04 03:27:09;;;;;;;32.25;13.15;;;;;;;3.55;100.00;99794.19;5023366;28;20025;-65
2021/12/04 03:29:40;;;;;;;17.58;7.90;;;;;;;3.30;100.00;99793.13;5023342;28;20029;-65
2021/12/04 03:42:46;;;;;;;17.13;7.18;;;;;;;3.19;100.00;99777.91;5021043;28;19944;-66
2021/12/04 03:45:12;;;;;;;12.27;6.97;;;;;;;3.23;100.00;99775.91;5023816;28;20065;-66
2021/12/04 03:47:44;;;;;;;20.05;8.05;;;;;;;3.13;100.00;99759.72;5020985;28;21190;-66
2021/12/04 03:50:10;;;;;;;19.52;8.32;;;;;;;3.31;100.00;99776.28;5024279;28;20026;-66
2021/12/04 03:52:36;;;;;;;17.42;8.20;;;;;;;3.20;100.00;99768.13;5005331;28;20040;-66
2021/12/04 03:55:04;;;;;;;26.73;9.13;;;;;;;3.37;100.00;99778.53;5025654;28;20341;-66
2021/12/04 03:57:29;;;;;;;27.48;10.95;;;;;;;3.43;100.00;99770.19;5021855;28;20055;-65
2021/12/04 03:59:55;;;;;;;24.15;9.25;;;;;;;3.24;100.00;99774.94;5026259;28;20025;-66
2021/12/04 04:02:20;;;;;;;23.98;9.93;;;;;;;3.20;100.00;99754.88;5006011;28;20415;-66
2021/12/04 04:04:45;;;;;;;23.58;10.82;;;;;;;3.42;100.00;99772.91;5023034;28;20071;-66
2021/12/04 04:07:11;;;;;;;24.83;9.20;;;;;;;3.33;100.00;99771.72;5027320;28;20029;-66
2021/12/04 04:09:36;;;;;;;28.67;9.60;;;;;;;3.38;100.00;99761.66;5005928;28;20037;-65
2021/12/04 04:12:02;;;;;;;17.25;7.15;;;;;;;3.36;100.00;99765.34;5030155;28;20068;-65
2021/12/04 04:14:27;;;;;;;25.58;10.02;;;;;;;3.59;100.00;99756.72;5022127;28;20061;-66
2021/12/04 04:16:54;;;;;;;23.48;8.48;;;;;;;3.38;100.00;99763.44;5025315;28;20447;-71
2021/12/04 04:19:20;;;;;;;30.52;12.45;;;;;;;3.47;100.00;99752.25;5011799;28;20092;-69
2021/12/04 04:21:46;;;;;;;14.20;7.35;;;;;;;3.48;100.00;99751.28;5026288;28;20037;-71
2021/12/04 04:24:14;;;;;;;27.90;12.48;;;;;;;3.58;100.00;99748.88;5028793;28;20894;-65
2021/12/04 04:26:41;;;;;;;16.05;7.45;;;;;;;3.48;100.00;99745.13;5025190;28;20033;-66
2021/12/04 04:29:07;;;;;;;17.25;7.22;;;;;;;3.39;100.00;99742.13;5029570;28;20034;-65
2021/12/04 04:31:35;;;;;;;15.43;7.00;;;;;;;3.27;100.00;99748.22;5030177;28;20076;-66
2021/12/04 04:34:02;;;;;;;20.27;9.05;;;;;;;3.45;100.00;99739.06;5030222;28;20075;-65
2021/12/04 05:14:23;;;;;;;14.63;7.78;;;;;;;3.47;100.00;99735.44;5023514;28;20071;-70
2021/12/04 05:16:52;;;;;;;9.38;4.95;;;;;;;3.36;100.00;99730.84;5029686;28;20075;-70
2021/12/04 05:19:26;;;;;;;10.30;6.10;;;;;;;3.44;100.00;99734.69;5022955;28;20159;-69
2021/12/04 05:21:52;;;;;;;11.55;5.50;;;;;;;3.36;100.00;99723.75;5028634;28;20104;-70
2021/12/04 05:24:17;;;;;;;9.43;5.82;;;;;;;3.42;100.00;99717.19;5005257;28;20462;-65
2021/12/04 05:26:43;;;;;;;10.95;6.32;;;;;;;3.41;100.00;99720.78;5024456;28;20471;-65
2021/12/04 05:29:08;;;;;;;11.55;6.60;;;;;;;3.36;100.00;99720.25;5024920;28;20044;-65
2021/12/04 05:31:33;;;;;;;9.68;5.32;;;;;;;3.28;100.00;99710.13;5013180;28;20116;-70
2021/12/04 05:33:59;;;;;;;9.32;6.18;;;;;;;3.24;100.00;99690.94;5023504;28;20029;-70
2021/12/04 05:36:25;;;;;;;8.15;5.15;;;;;;;3.21;100.00;99687.59;5026448;28;20056;-70
2021/12/04 05:38:51;;;;;;;8.77;5.35;;;;;;;3.28;100.00;99708.34;5024674;28;20029;-70
2021/12/04 05:41:16;;;;;;;13.18;7.78;;;;;;;3.35;100.00;99711.44;5028161;28;20033;-69
2021/12/04 05:43:42;;;;;;;9.55;6.07;;;;;;;3.36;100.00;99704.31;5024196;28;20075;-70
2021/12/04 05:48:41;;;;;;;12.48;7.43;;;;;;;3.27;100.00;99711.09;5023380;28;20029;-70
2021/12/04 05:56:29;;;;;;;10.10;6.65;;;;;;;3.39;100.00;99704.13;5011525;28;20090;-65
2021/12/04 05:58:55;;;;;;;10.30;6.55;;;;;;;3.41;100.00;99711.03;5024527;28;20025;-64
2021/12/04 06:01:21;;;;;;;12.27;6.95;;;;;;;3.37;100.00;99721.94;5015863;28;20017;-65
2021/12/04 06:03:47;;;;;;;13.10;6.15;;;;;;;3.29;100.00;99712.72;5023977;28;20048;-65
2021/12/04 06:06:12;;;;;;;12.35;6.95;;;;;;;3.31;100.00;99709.94;5014004;28;20026;-65
2021/12/04 06:08:38;;;;;;;13.18;7.20;;;;;;;3.39;100.00;99707.63;5024405;28;20478;-65
2021/12/04 06:11:03;;;;;;;13.88;7.55;;;;;;;3.33;100.00;99705.38;5026377;28;20075;-70
2021/12/04 06:13:29;;;;;;;11.27;7.05;;;;;;;3.32;100.00;99694.84;5026280;28;20486;-70
2021/12/04 06:15:54;;;;;;;9.98;6.38;;;;;;;3.37;100.00;99706.88;5025965;28;20378;-70
2021/12/04 06:18:21;;;;;;;12.40;6.90;;;;;;;3.26;100.00;99697.00;5024731;28;20029;-70
2021/12/04 06:23:32;;;;;;;16.17;8.50;;;;;;;3.52;100.00;99710.34;5022932;28;20099;-65
2021/12/04 06:25:57;;;;;;;18.67;8.52;;;;;;;3.49;100.00;99705.22;5023931;28;20033;-70
2021/12/04 06:28:23;;;;;;;14.57;7.30;;;;;;;3.34;100.00;99698.25;5026545;28;20029;-70
2021/12/04 06:30:48;;;;;;;16.80;8.65;;;;;;;3.56;100.00;99695.91;5024766;28;20525;-70
2021/12/04 06:33:17;;;;;;;14.55;7.38;;;;;;;3.39;100.00;99697.03;5023408;28;20032;-70
2021/12/04 06:35:43;;;;;;;15.02;8.27;;;;;;;3.39;100.00;99688.19;5023841;28;20025;-65
2021/12/04 06:38:10;;;;;;;18.77;8.68;;;;;;;3.40;100.00;99685.47;5023735;28;20087;-70
2021/12/04 06:40:38;;;;;;;16.83;8.70;;;;;;;3.38;100.00;99683.84;5009416;28;20478;-70
2021/12/04 06:43:04;;;;;;;14.70;7.45;;;;;;;3.42;100.00;99683.56;5009493;28;20034;-70
2021/12/04 06:45:32;;;;;;;15.23;7.72;;;;;;;3.38;100.00;99683.84;5028187;28;20033;-70
2021/12/04 06:48:01;;;;;;;14.95;8.35;;;;;;;3.30;100.00;99679.91;5024137;28;20094;-70
2021/12/04 06:53:11;;;;;;;20.40;10.27;;;;;;;3.43;100.00;99690.56;5011937;28;20029;-70
2021/12/04 06:55:40;;;;;;;20.73;9.80;;;;;;;3.46;100.00;99692.16;5021206;28;20033;-70
2021/12/04 06:58:06;;;;;;;22.00;10.70;;;;;;;3.44;100.00;99692.25;5014460;28;20037;-70
2021/12/04 07:00:32;;;;;;;17.67;9.02;;;;;;;3.34;100.00;99677.03;5024763;28;20020;-70
2021/12/04 07:02:58;;;;;;;19.77;8.57;;;;;;;3.42;100.00;99693.31;5023554;28;20033;-70
2021/12/04 07:05:23;;;;;;;20.52;9.07;;;;;;;3.44;100.00;99694.91;5005663;28;20026;-65
2021/12/04 07:07:48;;;;;;;19.08;9.95;;;;;;;3.46;100.00;99684.19;5026447;28;20032;-65
2021/12/04 07:10:14;;;;;;;23.55;11.07;;;;;;;3.39;100.00;99681.09;5024542;28;20116;-65
2021/12/04 07:12:39;;;;;;;17.73;9.10;;;;;;;3.40;100.00;99689.91;5012943;28;20068;-70
2021/12/04 07:15:05;;;;;;;21.23;10.45;;;;;;;3.43;100.00;99692.34;5007813;28;20392;-70
2021/12/04 07:17:33;;;;;;;22.42;9.18;;;;;;;3.44;100.00;99692.25;5027884;28;20418;-70
2021/12/04 07:19:58;;;;;;;18.40;7.82;;;;;;;3.45;100.00;99687.81;5021553;28;20021;-71
2021/12/04 07:22:24;;;;;;;19.50;9.13;;;;;;;3.43;100.00;99689.69;5027092;28;20430;-70
2021/12/04 07:24:50;;;;;;;18.77;9.15;;;;;;;3.50;100.00;99674.22;5021543;28;20049;-70
2021/12/04 07:27:17;;;;;;;16.35;8.52;;;;;;;3.70;100.00;99684.34;5026346;28;20036;-70
2021/12/04 07:29:42;;;;;;;17.17;8.30;;;;;;;3.46;100.00;99694.81;5023558;28;20363;-70
2021/12/04 07:32:09;;;;;;;22.63;10.35;;;;;;;3.65;100.00;99678.50;5026590;28;20037;-71
2021/12/04 07:34:34;;;;;;;21.88;9.70;;;;;;;3.60;100.00;99678.78;5020502;28;20139;-70
2021/12/04 07:36:59;;;;;;;20.20;9.77;;;;;;;3.65;100.00;99682.94;5025799;28;20053;-69
2021/12/04 07:39:25;;;;;;;25.10;11.63;;;;;;;3.59;100.00;99673.59;5022232;28;20143;-70
2021/12/04 07:41:50;;;;;;;20.27;10.95;;;;;;;3.72;100.00;99684.25;5021229;28;20068;-70
2021/12/04 07:44:15;;;;;;;15.02;6.65;;;;;;;3.54;100.00;99679.22;5023034;28;20056;-71
2021/12/04 07:46:41;;;;;;;25.35;13.48;;;;;;;3.88;100.00;99674.25;5026960;28;20037;-64
2021/12/04 07:49:07;;;;;;;16.73;8.57;;;;;;;3.61;100.00;99669.03;5021117;28;20064;-71
2021/12/04 07:51:32;;;;;;;24.13;12.32;;;;;;;3.81;100.00;99682.75;5024304;28;20044;-71
2021/12/04 07:53:58;;;;;;;20.80;11.73;;;;;;;3.87;100.00;99677.03;5020851;28;20029;-64
2021/12/04 07:56:24;;;;;;;20.80;10.65;;;;;;;3.69;100.00;99677.34;5018940;28;20522;-71
2021/12/04 07:58:50;;;;;;;17.25;7.32;;;;;;;3.65;100.00;99675.00;5024007;28;20025;-71
2021/12/04 08:01:15;;;;;;;20.27;9.32;;;;;;;3.72;100.00;99677.13;5023714;28;20039;-71
2021/12/04 08:03:40;;;;;;;22.00;9.73;;;;;;;3.85;100.00;99666.50;5022450;28;20033;-70
2021/12/04 08:06:06;;;;;;;16.73;8.20;;;;;;;3.71;100.00;99651.53;5022177;28;20029;-71
2021/12/04 08:08:33;;;;;;;20.67;9.32;;;;;;;3.77;100.00;99658.25;5003422;28;20060;-71
2021/12/04 08:10:58;;;;;;;20.20;9.05;;;;;;;3.84;100.00;99669.28;5019901;28;20119;-71
2021/12/04 08:13:24;;;;;;;15.52;8.07;;;;;;;3.71;100.00;99656.81;5003268;28;20642;-71
2021/12/04 08:15:49;;;;;;;11.65;6.35;;;;;;;3.80;100.00;99667.78;5023662;28;20059;-71
2021/12/04 08:18:14;;;;;;;12.75;7.00;;;;;;;3.67;100.00;99660.69;5021984;28;20482;-71
2021/12/04 08:20:40;;;;;;;12.85;7.05;;;;;;;3.86;100.00;99662.06;5008932;28;20397;-71
2021/12/04 08:23:05;;;;;;;17.02;8.05;;;;;;;3.82;100.00;99665.88;5021225;28;20513;-71
2021/12/04 08:25:32;;;;;;;13.88;7.03;;;;;;;3.69;100.00;99665.88;5022779;28;20033;-71
2021/12/04 08:27:58;;;;;;;9.52;5.80;;;;;;;3.72;100.00;99663.00;5023152;28;20486;-66
2021/12/04 08:30:29;;;;;;;14.35;8.43;;;;;;;3.99;100.00;99652.28;5019970;28;20116;-70
2021/12/04 08:32:56;;;;;;;9.27;5.10;;;;;;;3.77;100.00;99650.28;5020739;28;20033;-65
2021/12/04 08:35:25;;;;;;;9.15;6.22;;;;;;;3.69;100.00;99647.28;5002364;28;20406;-71
2021/12/04 08:37:52;;;;;;;13.15;7.63;;;;;;;3.93;100.00;99643.88;5016729;28;20125;-71
2021/12/04 08:40:18;;;;;;;12.90;6.78;;;;;;;4.02;100.00;99646.75;5019172;28;20029;-71
2021/12/04 08:42:45;;;;;;;15.50;8.95;;;;;;;3.92;100.00;99636.88;5016630;28;20038;-71
2021/12/04 08:45:12;;;;;;;18.40;10.13;;;;;;;4.00;100.00;99637.22;5019975;28;20611;-71
2021/12/04 08:47:38;;;;;;;14.75;8.77;;;;;;;4.11;100.00;99631.13;5016646;28;20037;-71
2021/12/04 08:50:09;;;;;;;17.05;9.80;;;;;;;4.02;100.00;99624.66;4998015;28;20025;-71
2021/12/04 08:52:36;;;;;;;17.65;9.05;;;;;;;4.05;100.00;99617.31;5018111;28;20059;-71
2021/12/04 08:55:02;;;;;;;16.45;10.00;;;;;;;3.95;100.00;99616.28;5024366;28;20037;-69
2021/12/04 08:57:27;;;;;;;15.10;9.43;;;;;;;3.83;100.00;99595.88;5007588;28;20037;-71
2021/12/04 08:59:53;;;;;;;17.42;8.45;;;;;;;3.91;100.00;99612.16;5024363;28;20021;-71
2021/12/04 09:02:18;;;;;;;14.68;8.85;;;;;;;4.00;100.00;99605.34;4989749;28;20033;-71
2021/12/04 09:04:46;;;;;;;16.95;8.88;;;;;;;3.95;100.00;99603.00;5021622;28;20072;-71
2021/12/04 09:07:12;;;;;;;12.93;8.30;;;;;;;3.97;100.00;99602.88;5005791;28;20045;-71
2021/12/04 09:09:38;;;;;;;19.20;10.68;;;;;;;4.07;100.00;99597.78;5023051;28;20044;-71
2021/12/04 09:12:10;;;;;;;19.50;11.43;;;;;;;4.14;100.00;99597.22;5026447;28;20033;-71
2021/12/04 09:14:37;;;;;;;15.00;8.73;;;;;;;4.05;100.00;99605.88;5007509;28;20068;-71
2021/12/04 09:17:05;;;;;;;21.55;9.95;;;;;;;4.07;100.00;99595.13;5025305;28;20463;-71
2021/12/04 09:19:30;;;;;;;28.30;13.80;;;;;;;4.14;100.00;99583.94;5022316;28;20045;-70
2021/12/04 09:21:57;;;;;;;28.40;14.20;;;;;;;4.01;100.00;99602.56;5010045;28;20459;-71
2021/12/04 09:24:28;;;;;;;21.98;10.65;;;;;;;4.14;100.00;99601.72;5022852;28;20041;-71
2021/12/04 09:34:54;;;;;;;30.73;13.18;;;;;;;4.15;100.00;99606.91;5024885;28;20044;-71
2021/12/04 10:01:59;;;;;;;28.45;11.55;;;;;;;4.43;100.00;99578.34;5026726;28;20037;-71
2021/12/04 10:18:28;;;;;;;28.58;14.52;;;;;;;4.17;100.00;99527.94;5023650;28;20033;-72
2021/12/04 10:21:09;;;;;;;37.88;17.50;;;;;;;4.62;100.00;99548.63;5022152;28;20021;-71
2021/12/04 10:34:40;;;;;;;30.15;12.82;;;;;;;4.26;100.00;99523.75;5020231;28;20052;-72
2021/12/04 10:37:12;;;;;;;42.03;18.77;;;;;;;4.57;100.00;99533.97;5023773;28;20483;-72
2021/12/04 10:39:37;;;;;;;32.28;16.35;;;;;;;4.44;100.00;99531.38;5020337;28;20033;-72
2021/12/04 10:42:08;;;;;;;31.95;16.23;;;;;;;4.51;100.00;99527.28;5023842;28;20390;-71
2021/12/04 10:44:38;;;;;;;34.20;14.23;;;;;;;4.40;100.00;99525.41;5017668;28;20033;-72
2021/12/04 10:47:11;;;;;;;29.65;14.57;;;;;;;4.49;100.00;99524.75;5021852;28;20036;-72
2021/12/04 10:49:47;;;;;;;23.60;12.50;;;;;;;4.53;100.00;99513.91;5023068;28;20061;-71
2021/12/04 10:55:24;;;;;;;21.00;9.88;;;;;;;4.40;100.00;99500.66;5018365;28;20049;-72
2021/12/04 11:00:41;;;;;;;;;;;;;;;4.34;100.00;99492.16;5024132;28;20490;-71
2021/12/04 11:20:35;;;;;;;24.75;12.43;;;;;;;4.45;100.00;99434.72;5018418;28;20075;-65
2021/12/04 11:36:43;;;;;;;31.33;16.08;;;;;;;4.51;100.00;99439.56;5020152;28;20126;-64
2021/12/04 11:44:43;;;;;;;31.20;15.50;;;;;;;4.56;100.00;99429.44;5020650;28;20033;-65
2021/12/04 11:47:09;;;;;;;32.47;16.33;;;;;;;4.57;100.00;99425.81;5022539;28;20021;-65
2021/12/04 11:49:35;;;;;;;29.52;14.57;;;;;;;4.38;100.00;99412.22;5019882;28;20038;-65
2021/12/04 11:52:14;;;;;;;34.83;16.52;;;;;;;4.57;100.00;99422.31;5022338;28;20029;-65
2021/12/04 11:54:44;;;;;;;31.23;14.82;;;;;;;4.44;100.00;99423.22;5017809;28;20040;-66
2021/12/04 11:57:11;;;;;;;41.08;19.63;;;;;;;4.46;100.00;99405.38;5021915;28;20037;-65
2021/12/04 11:59:39;;;;;;;40.22;21.63;;;;;;;4.38;100.00;99413.06;5017349;28;20017;-65
2021/12/04 12:02:08;;;;;;;40.05;18.38;;;;;;;4.54;100.00;99417.25;5020528;28;20048;-65
2021/12/04 12:04:40;;;;;;;27.00;13.73;;;;;;;4.37;100.00;99398.06;5003512;28;20144;-65
2021/12/04 12:07:11;;;;;;;34.58;16.27;;;;;;;4.47;100.00;99411.53;5007269;28;20025;-65
2021/12/04 12:09:39;;;;;;;30.55;15.70;;;;;;;4.45;100.00;99405.50;5005985;28;20040;-66
2021/12/04 12:12:06;;;;;;;32.35;16.17;;;;;;;4.41;100.00;99388.09;5023975;28;20044;-65
2021/12/04 12:14:39;;;;;;;30.88;14.15;;;;;;;4.47;100.00;99403.56;5002388;28;20136;-65
2021/12/04 12:17:05;;;;;;;32.47;15.48;;;;;;;4.37;100.00;99382.13;5022650;28;20103;-65
2021/12/04 12:19:42;;;;;;;25.30;12.77;;;;;;;4.54;100.00;99398.63;5021886;28;20032;-65
2021/12/04 12:22:25;;;;;;;29.60;14.52;;;;;;;4.52;100.00;99395.25;5022902;28;20099;-65
2021/12/04 12:36:11;;;;;;;30.35;17.50;;;;;;;4.65;100.00;99364.94;5019397;28;20033;-65
2021/12/04 12:38:39;;;;;;;29.55;17.45;;;;;;;4.88;100.00;99377.44;5024608;28;20030;-65
2021/12/04 12:41:15;;;;;;;24.90;12.60;;;;;;;4.60;100.00;99359.13;5032435;28;20029;-65
2021/12/04 12:43:59;;;;;;;23.33;12.95;;;;;;;4.70;100.00;99361.94;5024332;28;20029;-65
2021/12/04 12:46:47;;;;;;;10.03;5.63;;;;;;;4.83;100.00;99371.63;5011006;28;20048;-65
2021/12/04 12:49:18;;;;;;;22.38;12.65;;;;;;;4.82;100.00;99361.97;5015473;28;20290;-66
2021/12/04 12:51:45;;;;;;;24.90;13.88;;;;;;;4.68;100.00;99366.50;5025313;28;20104;-65
2021/12/04 12:54:10;;;;;;;24.67;14.07;;;;;;;4.70;100.00;99356.59;5025108;28;20459;-65
2021/12/04 12:56:37;;;;;;;18.38;11.77;;;;;;;4.70;100.00;99358.44;5007625;28;20041;-64
2021/12/04 12:59:13;;;;;;;22.77;12.95;;;;;;;4.67;100.00;99359.50;5008429;28;20018;-65
2021/12/04 13:11:40;;;;;;;17.45;9.85;;;;;;;4.25;100.00;99333.41;4995049;28;20036;-65
2021/12/04 13:13:29;;;;;;;23.90;12.85;;;;;;;4.63;100.00;99358.06;5022043;28;20063;-65
2021/12/04 13:16:01;;;;;;;25.90;15.05;;;;;;;4.74;100.00;99347.44;5022734;28;20025;-65
2021/12/04 13:18:26;;;;;;;20.35;10.25;;;;;;;4.61;100.00;99368.81;5019833;28;20029;-66
2021/12/04 13:20:53;;;;;;;23.88;11.25;;;;;;;4.47;100.00;99361.88;5005538;28;20028;-66
2021/12/04 13:23:22;;;;;;;28.75;16.83;;;;;;;4.61;100.00;99376.78;5021490;28;20040;-71
2021/12/04 13:25:56;;;;;;;27.45;15.95;;;;;;;4.57;100.00;99371.81;5021183;28;20037;-72
2021/12/04 13:28:25;;;;;;;21.02;12.35;;;;;;;4.37;100.00;99362.69;5015257;28;20026;-71
2021/12/04 13:30:50;;;;;;;19.48;11.90;;;;;;;4.44;100.00;99348.00;5019546;28;20022;-72
2021/12/04 13:33:16;;;;;;;22.75;13.68;;;;;;;4.35;100.00;99345.06;5016810;28;20044;-70
2021/12/04 13:35:46;;;;;;;24.63;11.25;;;;;;;4.32;100.00;99342.63;5018531;28;20834;-72
2021/12/04 13:38:13;;;;;;;23.02;12.93;;;;;;;4.52;100.00;99348.22;5017833;28;20029;-71
2021/12/04 13:40:39;;;;;;;28.00;14.40;;;;;;;4.40;100.00;99362.47;4997122;28;20057;-70
2021/12/04 13:43:12;;;;;;;26.40;14.38;;;;;;;4.27;100.00;99351.91;5017786;28;20125;-70
2021/12/04 13:45:37;;;;;;;29.80;18.23;;;;;;;4.36;100.00;99329.97;5020299;28;20026;-69
2021/12/04 13:48:03;;;;;;;32.17;16.80;;;;;;;4.38;100.00;99345.78;5020048;28;20083;-70
2021/12/04 13:53:02;;;;;;;36.08;20.65;;;;;;;4.56;100.00;99352.34;5018725;28;20056;-70
2021/12/04 13:55:31;;;;;;;29.52;16.10;;;;;;;4.32;100.00;99357.75;5014757;28;20028;-70
2021/12/04 13:57:57;;;;;;;26.75;16.05;;;;;;;4.41;100.00;99337.59;5017743;28;20095;-70
2021/12/04 14:00:23;;;;;;;23.38;11.77;;;;;;;4.28;100.00;99345.66;5000821;28;20033;-70
2021/12/04 14:02:48;;;;;;;19.23;11.35;;;;;;;4.22;100.00;99354.94;5000002;28;20511;-70
2021/12/04 14:05:17;;;;;;;17.55;9.93;;;;;;;4.30;100.00;99355.19;5012872;28;20513;-71
2021/12/04 14:07:52;;;;;;;22.95;14.13;;;;;;;4.32;100.00;99353.25;5011610;28;20052;-69
2021/12/04 14:10:26;;;;;;;20.00;9.63;;;;;;;4.25;100.00;99357.34;5013276;28;20491;-71
2021/12/04 14:12:53;;;;;;;17.90;9.75;;;;;;;4.22;100.00;99359.38;5014349;28;20044;-70
2021/12/04 14:15:20;;;;;;;21.80;11.75;;;;;;;4.26;100.00;99359.03;5013537;28;20068;-70
2021/12/04 14:17:48;;;;;;;16.25;9.38;;;;;;;4.32;100.00;99355.09;5017734;28;20031;-70
2021/12/04 14:20:19;;;;;;;20.45;10.65;;;;;;;4.31;100.00;99345.41;5019125;28;20036;-70
2021/12/04 14:22:49;;;;;;;18.95;9.85;;;;;;;4.31;100.00;99358.69;5019212;28;20570;-65
2021/12/04 14:25:16;;;;;;;21.05;10.38;;;;;;;4.30;100.00;99360.50;5022116;28;20075;-65
2021/12/04 14:27:42;;;;;;;19.02;10.23;;;;;;;4.41;100.00;99357.03;5017489;28;20026;-65
2021/12/04 14:30:11;;;;;;;22.20;11.05;;;;;;;4.41;100.00;99354.38;5021135;28;20126;-65
2021/12/04 14:32:37;;;;;;;24.13;11.25;;;;;;;4.41;100.00;99354.38;5020181;28;20017;-65
2021/12/04 14:35:09;;;;;;;22.95;11.10;;;;;;;4.37;100.00;99350.25;5019937;28;20037;-65
2021/12/04 14:37:37;;;;;;;23.83;10.68;;;;;;;4.39;100.00;99350.97;5017325;28;20066;-65